M/V C0sta Favolosa — ICPK — position and weather

sailwx.info

Track history (hours):
 
Tides and Currents Weather Stations Pressure Air Temp Water Temp Dewpoint Dewpoint Depression Visibility Wind Speed Wind Dir Waves Ship Positions

M/V C0sta Favolosa

Last reported at 2017-Apr-30 14:09 UTC. Time now 2017-Apr-30 14:48 UTC.
Position N 41°21' E 002°10'.

Length 289 m; draft 8.3 m.

Type: Ship. MMSI: 247311100.

Date/timePositionNaut miles runAvg speedWind from/ knotsBaromVisibWave heightAir tempDewpointWater temp
2017-Apr-30 14:09N 41°21' E 002°10'5 1.2
2017-Apr-30 10:09N 41°16' E 002°11'212.4
2017-Apr-30 09:58N 41°15' E 002°14'1516.8
2017-Apr-30 09:06N 41°20' E 002°32'23518.0
2017-Apr-29 20:01N 43°16' E 007°10'019.3
2017-Apr-29 20:00N 43°16' E 007°10'1019.6
2017-Apr-29 19:30N 43°22' E 007°21'1019.6
2017-Apr-29 19:00N 43°28' E 007°31'1019.8
2017-Apr-29 18:30N 43°34' E 007°42'1019.9
2017-Apr-29 18:00N 43°40' E 007°53'1019.9
2017-Apr-29 17:30N 43°46' E 008°04'1019.9
2017-Apr-29 17:00N 43°52' E 008°15'1018.9
2017-Apr-29 16:30N 43°59' E 008°23'918.8
2017-Apr-29 16:00N 44°08' E 008°29'917.5
2017-Apr-29 15:30N 44°16' E 008°33'4 8.2
2017-Apr-29 15:00N 44°19' E 008°30'1 0.7
2017-Apr-29 14:00N 44°19' E 008°29'0 0.0
2017-Apr-29 13:30N 44°19' E 008°29'0 0.0
2017-Apr-29 13:00N 44°19' E 008°29'0 0.0
2017-Apr-29 12:30N 44°19' E 008°29'0 0.0
2017-Apr-29 12:00N 44°19' E 008°29'0 0.0
2017-Apr-29 11:30N 44°19' E 008°29'0 0.0
2017-Apr-29 11:00N 44°19' E 008°29'0 0.0
2017-Apr-29 10:30N 44°19' E 008°29'0 0.0
2017-Apr-29 09:57N 44°19' E 008°29'0 0.0
2017-Apr-29 09:30N 44°19' E 008°29'0 0.0
2017-Apr-29 09:00N 44°19' E 008°29'0 0.0
2017-Apr-29 08:30N 44°19' E 008°29'0 0.0
2017-Apr-29 08:00N 44°19' E 008°29'0 0.0
2017-Apr-29 07:30N 44°19' E 008°29'0 0.0
2017-Apr-29 07:00N 44°19' E 008°29'0 0.2
2017-Apr-29 06:30N 44°19' E 008°29'1 2.4
2017-Apr-29 06:00N 44°19' E 008°31'510.7
2017-Apr-29 05:30N 44°14' E 008°34'816.9
2017-Apr-29 05:00N 44°06' E 008°28'713.3
2017-Apr-29 04:30N 44°00' E 008°23'612.4
2017-Apr-29 04:00N 43°55' E 008°19'611.5
2017-Apr-29 03:29N 43°51' E 008°14'2211.6
2017-Apr-29 01:34N 43°37' E 007°49'111.6
2017-Apr-29 01:28N 43°37' E 007°48'611.6
2017-Apr-29 00:59N 43°33' E 007°42'611.7
2017-Apr-29 00:29N 43°30' E 007°35'611.7
2017-Apr-29 00:00N 43°26' E 007°29'612.0
2017-Apr-28 23:29N 43°23' E 007°22'612.1
2017-Apr-28 23:00N 43°19' E 007°16'1012.2
2017-Apr-28 22:13N 43°13' E 007°05'6614.6
2017-Apr-28 17:41N 42°56' E 005°38'2218.6
2017-Apr-28 16:31N 43°07' E 005°12'118.4
2017-Apr-28 16:28N 43°07' E 005°12'818.1
2017-Apr-28 16:00N 43°15' E 005°09'816.3
2017-Apr-28 15:30N 43°21' E 005°18'2 1.0
2017-Apr-28 13:52N 43°21' E 005°20'0 0.0
2017-Apr-28 13:22N 43°21' E 005°20'0 0.0
2017-Apr-28 12:52N 43°21' E 005°20'0 0.0
2017-Apr-28 12:22N 43°21' E 005°20'0 0.0
2017-Apr-28 11:52N 43°21' E 005°20'0 0.0
2017-Apr-28 11:22N 43°21' E 005°20'0 0.0
2017-Apr-28 10:58N 43°21' E 005°20'0 0.0
2017-Apr-28 10:28N 43°21' E 005°20'0 0.0
2017-Apr-28 09:58N 43°21' E 005°20'0 0.0
2017-Apr-28 09:28N 43°21' E 005°20'0 0.0
2017-Apr-28 08:58N 43°21' E 005°20'0 0.0
2017-Apr-28 08:28N 43°21' E 005°20'0 0.0
2017-Apr-28 07:58N 43°21' E 005°20'0 0.0
2017-Apr-28 07:28N 43°21' E 005°20'0 0.0
2017-Apr-28 06:58N 43°21' E 005°20'0 0.0
2017-Apr-28 06:16N 43°21' E 005°20'0 0.0
2017-Apr-28 05:58N 43°21' E 005°20'0 0.0
2017-Apr-28 05:16N 43°21' E 005°20'0 0.0
2017-Apr-28 04:58N 43°21' E 005°20'0 0.4
2017-Apr-28 04:29N 43°21' E 005°20'2 4.0
2017-Apr-28 04:00N 43°21' E 005°17'511.0
2017-Apr-28 03:30N 43°17' E 005°12'816.5
2017-Apr-28 03:00N 43°10' E 005°05'917.9
2017-Apr-28 02:29N 43°03' E 004°58'1318.1
2017-Apr-28 01:46N 42°52' E 004°49'150 9.1
2017-Apr-27 09:14N 41°15' E 002°14'517.6
2017-Apr-27 08:56N 41°17' E 002°20'26619.1
2017-Apr-26 19:00N 43°19' E 007°40'2621.4
2017-Apr-26 17:47N 43°39' E 008°03'721.5
2017-Apr-26 17:29N 43°44' E 008°08'1021.4
2017-Apr-26 17:00N 43°52' E 008°17'1021.1
2017-Apr-26 16:30N 44°01' E 008°24'1020.3
2017-Apr-26 16:01N 44°10' E 008°31'815.6
2017-Apr-26 15:30N 44°18' E 008°32'2 3.6
2017-Apr-26 15:00N 44°19' E 008°29'0 0.3
2017-Apr-26 14:30N 44°19' E 008°29'0 0.0
2017-Apr-26 13:30N 44°19' E 008°29'0 0.0
2017-Apr-26 12:57N 44°19' E 008°29'0 0.0
2017-Apr-26 12:30N 44°19' E 008°29'0 0.0
2017-Apr-26 12:00N 44°19' E 008°29'0 0.0
2017-Apr-26 11:30N 44°19' E 008°29'0 0.0
2017-Apr-26 11:00N 44°19' E 008°29'0 0.0
2017-Apr-26 10:30N 44°19' E 008°29'0 0.0
2017-Apr-26 09:57N 44°19' E 008°29'0 0.0
2017-Apr-26 09:30N 44°19' E 008°29'0 0.0
2017-Apr-26 08:57N 44°19' E 008°29'0 0.0
2017-Apr-26 08:30N 44°19' E 008°29'0 0.0
2017-Apr-26 08:00N 44°19' E 008°29'0 0.0
2017-Apr-26 07:27N 44°19' E 008°29'0 0.0
2017-Apr-26 07:00N 44°19' E 008°29'0 0.0
2017-Apr-26 06:30N 44°19' E 008°29'1 1.8
2017-Apr-26 06:01N 44°19' E 008°30'4 8.9
2017-Apr-26 05:30N 44°15' E 008°33'713.2
2017-Apr-26 05:01N 44°09' E 008°30'713.5
2017-Apr-26 04:30N 44°03' E 008°26'713.1
2017-Apr-26 04:00N 43°57' E 008°21'612.8
2017-Apr-26 03:30N 43°52' E 008°17'712.7
2017-Apr-26 03:00N 43°47' E 008°11'712.6
2017-Apr-26 02:27N 43°42' E 008°05'1313.8
2017-Apr-26 01:32N 43°32' E 007°54'118.8
2017-Apr-26 01:30N 43°31' E 007°54'918.7
2017-Apr-26 01:00N 43°24' E 007°45'1119.0
2017-Apr-26 00:25N 43°15' E 007°36'6117.6
2017-Apr-25 21:00N 42°39' E 006°30'918.2
2017-Apr-25 20:30N 42°39' E 006°18'5517.7
2017-Apr-25 17:24N 43°07' E 005°14'716.4
2017-Apr-25 17:00N 43°13' E 005°08'816.2
2017-Apr-25 16:30N 43°19' E 005°15'4 6.3
2017-Apr-25 15:53N 43°21' E 005°20'0 0.0
2017-Apr-25 15:11N 43°21' E 005°20'0 0.0
2017-Apr-25 14:53N 43°21' E 005°20'0 0.0
2017-Apr-25 14:23N 43°21' E 005°20'0 0.0
2017-Apr-25 13:29N 43°21' E 005°20'0 0.0
2017-Apr-25 12:41N 43°21' E 005°20'0 0.0
2017-Apr-25 12:29N 43°21' E 005°20'0 0.0
2017-Apr-25 09:35N 43°21' E 005°20'0 0.0
2017-Apr-25 09:29N 43°21' E 005°20'0 0.0
2017-Apr-25 08:35N 43°21' E 005°20'0 0.0
2017-Apr-25 07:17N 43°21' E 005°20'0 0.0
2017-Apr-25 06:53N 43°21' E 005°20'0 0.0
2017-Apr-25 06:29N 43°21' E 005°20'1 2.3
2017-Apr-25 06:00N 43°21' E 005°18'5 9.5
2017-Apr-25 05:30N 43°18' E 005°13'611.5
2017-Apr-25 05:00N 43°13' E 005°09'1812.1
2017-Apr-25 03:32N 42°57' E 004°59'011.8
2017-Apr-25 03:30N 42°57' E 004°58'1912.2
2017-Apr-25 01:58N 42°41' E 004°45'612.4
2017-Apr-25 01:29N 42°36' E 004°40'2113.7
2017-Apr-24 23:58N 42°18' E 004°25'3819.1
2017-Apr-24 21:58N 41°46' E 003°59'918.7
2017-Apr-24 21:30N 41°38' E 003°53'2919.0
2017-Apr-24 19:59N 41°13' E 003°32'919.4
2017-Apr-24 19:30N 41°06' E 003°26'1019.9
2017-Apr-24 19:00N 40°57' E 003°19'1019.8
2017-Apr-24 18:30N 40°49' E 003°12'1020.0
2017-Apr-24 18:00N 40°40' E 003°05'1019.9
2017-Apr-24 17:30N 40°32' E 002°58'1019.6
2017-Apr-24 17:00N 40°24' E 002°51'1919.0
2017-Apr-24 15:59N 40°07' E 002°38'918.6
2017-Apr-24 15:30N 39°59' E 002°32'918.7
2017-Apr-24 15:00N 39°51' E 002°26'1218.4
2017-Apr-24 14:22N 39°41' E 002°19'1415.8
2017-Apr-24 13:30N 39°28' E 002°22'918.3
2017-Apr-24 13:00N 39°23' E 002°32'816.9
2017-Apr-24 12:30N 39°30' E 002°38'3 6.5
2017-Apr-24 12:00N 39°33' E 002°38'0 0.0
2017-Apr-24 11:30N 39°33' E 002°38'0 0.0
2017-Apr-24 11:00N 39°33' E 002°38'0 0.0
2017-Apr-24 10:30N 39°33' E 002°38'0 0.0
2017-Apr-24 09:59N 39°33' E 002°38'0 0.0
2017-Apr-24 09:30N 39°33' E 002°38'0 0.0
2017-Apr-24 09:00N 39°33' E 002°38'0 0.0
2017-Apr-24 08:29N 39°33' E 002°38'0 0.0
2017-Apr-24 07:58N 39°33' E 002°38'0 0.0
2017-Apr-24 07:28N 39°33' E 002°38'0 0.0
2017-Apr-24 07:00N 39°33' E 002°38'0 0.0
2017-Apr-24 06:30N 39°33' E 002°38'0 0.0
2017-Apr-24 06:00N 39°33' E 002°38'0 0.5
2017-Apr-24 05:30N 39°33' E 002°38'3 5.2
2017-Apr-24 05:00N 39°31' E 002°39'612.0
2017-Apr-24 04:31N 39°26' E 002°35'612.2
2017-Apr-24 04:00N 39°24' E 002°28'611.5
2017-Apr-24 03:30N 39°27' E 002°21'712.9
2017-Apr-24 03:00N 39°32' E 002°16'612.4
2017-Apr-24 02:30N 39°38' E 002°13'611.2
2017-Apr-24 02:00N 39°43' E 002°13'510.9
2017-Apr-24 01:30N 39°49' E 002°13'611.1
2017-Apr-24 01:01N 39°54' E 002°12'611.4
2017-Apr-24 00:30N 39°60' E 002°12'611.3
2017-Apr-24 00:00N 40°06' E 002°12'611.2
2017-Apr-23 23:30N 40°11' E 002°12'611.3
2017-Apr-23 23:01N 40°17' E 002°12'611.5
2017-Apr-23 22:30N 40°23' E 002°12'611.4
2017-Apr-23 22:00N 40°28' E 002°12'611.3
2017-Apr-23 21:30N 40°34' E 002°12'611.5
2017-Apr-23 21:01N 40°40' E 002°12'611.6
2017-Apr-23 20:30N 40°46' E 002°11'611.6
2017-Apr-23 20:00N 40°51' E 002°11'611.9
2017-Apr-23 19:30N 40°57' E 002°11'612.1
2017-Apr-23 19:00N 41°03' E 002°11'612.0
2017-Apr-23 18:30N 41°09' E 002°11'611.8
2017-Apr-23 18:00N 41°15' E 002°10'5 9.9
2017-Apr-23 17:30N 41°20' E 002°10'1 2.7
2017-Apr-23 16:58N 41°22' E 002°11'0 0.0
2017-Apr-23 16:16N 41°22' E 002°11'0 0.0
2017-Apr-23 15:58N 41°22' E 002°11'0 0.0
2017-Apr-23 15:28N 41°22' E 002°11'0 0.0
2017-Apr-23 13:58N 41°22' E 002°11'0 0.0
2017-Apr-23 13:28N 41°22' E 002°11'0 0.0
2017-Apr-23 12:58N 41°22' E 002°11'0 0.0
2017-Apr-23 12:28N 41°22' E 002°11'0 0.0
2017-Apr-23 11:37N 41°22' E 002°11'0 0.2
2017-Apr-23 11:30N 41°22' E 002°11'1 1.9
2017-Apr-23 10:59N 41°21' E 002°10'3 5.8
2017-Apr-23 10:27N 41°18' E 002°11'511.3
2017-Apr-23 10:00N 41°15' E 002°17'815.7
2017-Apr-23 09:30N 41°18' E 002°26'917.5
2017-Apr-23 09:00N 41°22' E 002°37'917.6
2017-Apr-23 08:30N 41°26' E 002°47'917.8
2017-Apr-23 08:00N 41°30' E 002°58'918.0
2017-Apr-23 07:30N 41°35' E 003°08'918.2
2017-Apr-23 07:00N 41°39' E 003°19'918.4
2017-Apr-23 06:30N 41°43' E 003°30'1019.0
2017-Apr-23 06:00N 41°48' E 003°41'918.5
2017-Apr-23 05:30N 41°52' E 003°52'918.3
2017-Apr-23 05:01N 41°56' E 004°03'918.4
2017-Apr-23 04:31N 42°01' E 004°14'918.3
2017-Apr-23 04:00N 42°05' E 004°25'7118.2
2017-Apr-23 00:06N 42°39' E 005°49'7117.7
2017-Apr-22 20:03N 43°17' E 007°12'117.1
2017-Apr-22 20:00N 43°17' E 007°13'817.0
2017-Apr-22 19:30N 43°23' E 007°22'917.0
2017-Apr-22 18:58N 43°28' E 007°32'916.9
2017-Apr-22 18:26N 43°34' E 007°42'1017.4
2017-Apr-22 17:53N 43°39' E 007°53'1617.5
2017-Apr-22 16:57N 43°49' E 008°11'817.6
2017-Apr-22 16:30N 43°54' E 008°19'918.3
2017-Apr-22 16:00N 44°02' E 008°25'918.7
2017-Apr-22 15:30N 44°10' E 008°31'815.2
2017-Apr-22 15:00N 44°18' E 008°32'2 3.8
2017-Apr-22 14:30N 44°19' E 008°30'0 0.0
2017-Apr-22 13:26N 44°19' E 008°30'0 0.0
2017-Apr-22 12:59N 44°19' E 008°30'0 0.0
2017-Apr-22 12:30N 44°19' E 008°30'0 0.0
2017-Apr-22 12:00N 44°19' E 008°30'0 0.0
2017-Apr-22 11:30N 44°19' E 008°30'0 0.0
2017-Apr-22 11:00N 44°19' E 008°30'0 0.0
2017-Apr-22 10:30N 44°19' E 008°30'0 0.0
2017-Apr-22 10:00N 44°19' E 008°30'0 0.0
2017-Apr-22 09:30N 44°19' E 008°30'0 0.0
2017-Apr-22 09:00N 44°19' E 008°30'0 0.0
2017-Apr-22 08:30N 44°19' E 008°30'0 0.0
2017-Apr-22 08:00N 44°19' E 008°30'0 0.0
2017-Apr-22 07:30N 44°19' E 008°30'0 0.0
2017-Apr-22 07:00N 44°19' E 008°30'0 0.0
2017-Apr-22 06:30N 44°19' E 008°30'1 1.7
2017-Apr-22 06:00N 44°19' E 008°31'4 7.6
2017-Apr-22 05:30N 44°16' E 008°33'816.8
2017-Apr-22 05:01N 44°08' E 008°30'918.3
2017-Apr-22 04:31N 43°60' E 008°24'714.0
2017-Apr-22 04:01N 43°54' E 008°19'1312.5
2017-Apr-22 02:57N 43°46' E 008°04'612.7
2017-Apr-22 02:28N 43°42' E 007°58'812.6
2017-Apr-22 01:52N 43°37' E 007°49'412.6
2017-Apr-22 01:31N 43°35' E 007°44'612.5
2017-Apr-22 01:00N 43°31' E 007°37'712.7
2017-Apr-22 00:28N 43°27' E 007°30'612.4
2017-Apr-22 00:00N 43°23' E 007°23'612.3
2017-Apr-21 23:31N 43°20' E 007°17'712.3
2017-Apr-21 22:57N 43°15' E 007°09'612.5
2017-Apr-21 22:30N 43°12' E 007°03'712.7
2017-Apr-21 21:57N 43°08' E 006°55'1712.1
2017-Apr-21 20:32N 42°58' E 006°36'2312.6
2017-Apr-21 18:43N 42°54' E 006°06'619.1
2017-Apr-21 18:25N 42°55' E 005°58'2518.6
2017-Apr-21 17:04N 43°04' E 005°26'1018.8
2017-Apr-21 16:34N 43°08' E 005°14'118.3
2017-Apr-21 16:30N 43°09' E 005°13'816.0
2017-Apr-21 16:00N 43°16' E 005°09'815.1
2017-Apr-21 15:30N 43°21' E 005°17'2 1.1
2017-Apr-21 13:54N 43°21' E 005°20'0 0.0
2017-Apr-21 13:24N 43°21' E 005°20'0 0.0
2017-Apr-21 12:09N 43°21' E 005°20'0 0.0
2017-Apr-21 11:39N 43°21' E 005°20'0 0.0
2017-Apr-21 11:27N 43°21' E 005°20'0 0.0
2017-Apr-21 10:57N 43°21' E 005°20'0 0.0
2017-Apr-21 10:27N 43°21' E 005°20'0 0.0
2017-Apr-21 09:57N 43°21' E 005°20'0 0.0
2017-Apr-21 08:27N 43°21' E 005°20'0 0.0
2017-Apr-21 07:45N 43°21' E 005°20'0 0.0
2017-Apr-21 07:30N 43°21' E 005°20'0 0.0
2017-Apr-21 07:00N 43°21' E 005°20'0 0.1
2017-Apr-21 06:28N 43°21' E 005°20'2 3.3
2017-Apr-21 06:00N 43°21' E 005°18'5 9.1
2017-Apr-21 05:30N 43°18' E 005°13'611.1
2017-Apr-21 05:00N 43°13' E 005°10'612.1
2017-Apr-21 04:29N 43°08' E 005°05'2712.1
2017-Apr-21 02:14N 42°48' E 004°39'13815.4
2017-Apr-20 17:13N 41°18' E 002°17'513.4
2017-Apr-20 16:51N 41°16' E 002°11'5 2.1
2017-Apr-20 14:34N 41°21' E 002°10'0 0.0
2017-Apr-20 14:16N 41°21' E 002°10'  
Track history (hours):
 
Tides and Currents Weather Stations Pressure Air Temp Water Temp Dewpoint Dewpoint Depression Visibility Wind Speed Wind Dir Waves Ship Positions

M/V C0sta Favolosa

Last reported at 2017-Apr-30 14:09 UTC. Time now 2017-Apr-30 14:48 UTC.
Position N 41°21' E 002°10'.

Length 289 m; draft 8.3 m.

Type: Ship. MMSI: 247311100.

Date/timePositionNaut miles runAvg speedWind from/ knotsBaromVisibWave heightAir tempDewpointWater temp
2017-Apr-30 14:09N 41°21' E 002°10'5 1.2
2017-Apr-30 10:09N 41°16' E 002°11'212.4
2017-Apr-30 09:58N 41°15' E 002°14'1516.8
2017-Apr-30 09:06N 41°20' E 002°32'23518.0
2017-Apr-29 20:01N 43°16' E 007°10'019.3
2017-Apr-29 20:00N 43°16' E 007°10'1019.6
2017-Apr-29 19:30N 43°22' E 007°21'1019.6
2017-Apr-29 19:00N 43°28' E 007°31'1019.8
2017-Apr-29 18:30N 43°34' E 007°42'1019.9
2017-Apr-29 18:00N 43°40' E 007°53'1019.9
2017-Apr-29 17:30N 43°46' E 008°04'1019.9
2017-Apr-29 17:00N 43°52' E 008°15'1018.9
2017-Apr-29 16:30N 43°59' E 008°23'918.8
2017-Apr-29 16:00N 44°08' E 008°29'917.5
2017-Apr-29 15:30N 44°16' E 008°33'4 8.2
2017-Apr-29 15:00N 44°19' E 008°30'1 0.7
2017-Apr-29 14:00N 44°19' E 008°29'0 0.0
2017-Apr-29 13:30N 44°19' E 008°29'0 0.0
2017-Apr-29 13:00N 44°19' E 008°29'0 0.0
2017-Apr-29 12:30N 44°19' E 008°29'0 0.0
2017-Apr-29 12:00N 44°19' E 008°29'0 0.0
2017-Apr-29 11:30N 44°19' E 008°29'0 0.0
2017-Apr-29 11:00N 44°19' E 008°29'0 0.0
2017-Apr-29 10:30N 44°19' E 008°29'0 0.0
2017-Apr-29 09:57N 44°19' E 008°29'0 0.0
2017-Apr-29 09:30N 44°19' E 008°29'0 0.0
2017-Apr-29 09:00N 44°19' E 008°29'0 0.0
2017-Apr-29 08:30N 44°19' E 008°29'0 0.0
2017-Apr-29 08:00N 44°19' E 008°29'0 0.0
2017-Apr-29 07:30N 44°19' E 008°29'0 0.0
2017-Apr-29 07:00N 44°19' E 008°29'0 0.2
2017-Apr-29 06:30N 44°19' E 008°29'1 2.4
2017-Apr-29 06:00N 44°19' E 008°31'510.7
2017-Apr-29 05:30N 44°14' E 008°34'816.9
2017-Apr-29 05:00N 44°06' E 008°28'713.3
2017-Apr-29 04:30N 44°00' E 008°23'612.4
2017-Apr-29 04:00N 43°55' E 008°19'611.5
2017-Apr-29 03:29N 43°51' E 008°14'2211.6
2017-Apr-29 01:34N 43°37' E 007°49'111.6
2017-Apr-29 01:28N 43°37' E 007°48'611.6
2017-Apr-29 00:59N 43°33' E 007°42'611.7
2017-Apr-29 00:29N 43°30' E 007°35'611.7
2017-Apr-29 00:00N 43°26' E 007°29'612.0
2017-Apr-28 23:29N 43°23' E 007°22'612.1
2017-Apr-28 23:00N 43°19' E 007°16'1012.2
2017-Apr-28 22:13N 43°13' E 007°05'6614.6
2017-Apr-28 17:41N 42°56' E 005°38'2218.6
2017-Apr-28 16:31N 43°07' E 005°12'118.4
2017-Apr-28 16:28N 43°07' E 005°12'818.1
2017-Apr-28 16:00N 43°15' E 005°09'816.3
2017-Apr-28 15:30N 43°21' E 005°18'2 1.0
2017-Apr-28 13:52N 43°21' E 005°20'0 0.0
2017-Apr-28 13:22N 43°21' E 005°20'0 0.0
2017-Apr-28 12:52N 43°21' E 005°20'0 0.0
2017-Apr-28 12:22N 43°21' E 005°20'0 0.0
2017-Apr-28 11:52N 43°21' E 005°20'0 0.0
2017-Apr-28 11:22N 43°21' E 005°20'0 0.0
2017-Apr-28 10:58N 43°21' E 005°20'0 0.0
2017-Apr-28 10:28N 43°21' E 005°20'0 0.0
2017-Apr-28 09:58N 43°21' E 005°20'0 0.0
2017-Apr-28 09:28N 43°21' E 005°20'0 0.0
2017-Apr-28 08:58N 43°21' E 005°20'0 0.0
2017-Apr-28 08:28N 43°21' E 005°20'0 0.0
2017-Apr-28 07:58N 43°21' E 005°20'0 0.0
2017-Apr-28 07:28N 43°21' E 005°20'0 0.0
2017-Apr-28 06:58N 43°21' E 005°20'0 0.0
2017-Apr-28 06:16N 43°21' E 005°20'0 0.0
2017-Apr-28 05:58N 43°21' E 005°20'0 0.0
2017-Apr-28 05:16N 43°21' E 005°20'0 0.0
2017-Apr-28 04:58N 43°21' E 005°20'0 0.4
2017-Apr-28 04:29N 43°21' E 005°20'2 4.0
2017-Apr-28 04:00N 43°21' E 005°17'511.0
2017-Apr-28 03:30N 43°17' E 005°12'816.5
2017-Apr-28 03:00N 43°10' E 005°05'917.9
2017-Apr-28 02:29N 43°03' E 004°58'1318.1
2017-Apr-28 01:46N 42°52' E 004°49'150 9.1
2017-Apr-27 09:14N 41°15' E 002°14'517.6
2017-Apr-27 08:56N 41°17' E 002°20'26619.1
2017-Apr-26 19:00N 43°19' E 007°40'2621.4
2017-Apr-26 17:47N 43°39' E 008°03'721.5
2017-Apr-26 17:29N 43°44' E 008°08'1021.4
2017-Apr-26 17:00N 43°52' E 008°17'1021.1
2017-Apr-26 16:30N 44°01' E 008°24'1020.3
2017-Apr-26 16:01N 44°10' E 008°31'815.6
2017-Apr-26 15:30N 44°18' E 008°32'2 3.6
2017-Apr-26 15:00N 44°19' E 008°29'0 0.3
2017-Apr-26 14:30N 44°19' E 008°29'0 0.0
2017-Apr-26 13:30N 44°19' E 008°29'0 0.0
2017-Apr-26 12:57N 44°19' E 008°29'0 0.0
2017-Apr-26 12:30N 44°19' E 008°29'0 0.0
2017-Apr-26 12:00N 44°19' E 008°29'0 0.0
2017-Apr-26 11:30N 44°19' E 008°29'0 0.0
2017-Apr-26 11:00N 44°19' E 008°29'0 0.0
2017-Apr-26 10:30N 44°19' E 008°29'0 0.0
2017-Apr-26 09:57N 44°19' E 008°29'0 0.0
2017-Apr-26 09:30N 44°19' E 008°29'0 0.0
2017-Apr-26 08:57N 44°19' E 008°29'0 0.0
2017-Apr-26 08:30N 44°19' E 008°29'0 0.0
2017-Apr-26 08:00N 44°19' E 008°29'0 0.0
2017-Apr-26 07:27N 44°19' E 008°29'0 0.0
2017-Apr-26 07:00N 44°19' E 008°29'0 0.0
2017-Apr-26 06:30N 44°19' E 008°29'1 1.8
2017-Apr-26 06:01N 44°19' E 008°30'4 8.9
2017-Apr-26 05:30N 44°15' E 008°33'713.2
2017-Apr-26 05:01N 44°09' E 008°30'713.5
2017-Apr-26 04:30N 44°03' E 008°26'713.1
2017-Apr-26 04:00N 43°57' E 008°21'612.8
2017-Apr-26 03:30N 43°52' E 008°17'712.7
2017-Apr-26 03:00N 43°47' E 008°11'712.6
2017-Apr-26 02:27N 43°42' E 008°05'1313.8
2017-Apr-26 01:32N 43°32' E 007°54'118.8
2017-Apr-26 01:30N 43°31' E 007°54'918.7
2017-Apr-26 01:00N 43°24' E 007°45'1119.0
2017-Apr-26 00:25N 43°15' E 007°36'6117.6
2017-Apr-25 21:00N 42°39' E 006°30'918.2
2017-Apr-25 20:30N 42°39' E 006°18'5517.7
2017-Apr-25 17:24N 43°07' E 005°14'716.4
2017-Apr-25 17:00N 43°13' E 005°08'816.2
2017-Apr-25 16:30N 43°19' E 005°15'4 6.3
2017-Apr-25 15:53N 43°21' E 005°20'0 0.0
2017-Apr-25 15:11N 43°21' E 005°20'0 0.0
2017-Apr-25 14:53N 43°21' E 005°20'0 0.0
2017-Apr-25 14:23N 43°21' E 005°20'0 0.0
2017-Apr-25 13:29N 43°21' E 005°20'0 0.0
2017-Apr-25 12:41N 43°21' E 005°20'0 0.0
2017-Apr-25 12:29N 43°21' E 005°20'0 0.0
2017-Apr-25 09:35N 43°21' E 005°20'0 0.0
2017-Apr-25 09:29N 43°21' E 005°20'0 0.0
2017-Apr-25 08:35N 43°21' E 005°20'0 0.0
2017-Apr-25 07:17N 43°21' E 005°20'0 0.0
2017-Apr-25 06:53N 43°21' E 005°20'0 0.0
2017-Apr-25 06:29N 43°21' E 005°20'1 2.3
2017-Apr-25 06:00N 43°21' E 005°18'5 9.5
2017-Apr-25 05:30N 43°18' E 005°13'611.5
2017-Apr-25 05:00N 43°13' E 005°09'1812.1
2017-Apr-25 03:32N 42°57' E 004°59'011.8
2017-Apr-25 03:30N 42°57' E 004°58'1912.2
2017-Apr-25 01:58N 42°41' E 004°45'612.4
2017-Apr-25 01:29N 42°36' E 004°40'2113.7
2017-Apr-24 23:58N 42°18' E 004°25'3819.1
2017-Apr-24 21:58N 41°46' E 003°59'918.7
2017-Apr-24 21:30N 41°38' E 003°53'2919.0
2017-Apr-24 19:59N 41°13' E 003°32'919.4
2017-Apr-24 19:30N 41°06' E 003°26'1019.9
2017-Apr-24 19:00N 40°57' E 003°19'1019.8
2017-Apr-24 18:30N 40°49' E 003°12'1020.0
2017-Apr-24 18:00N 40°40' E 003°05'1019.9
2017-Apr-24 17:30N 40°32' E 002°58'1019.6
2017-Apr-24 17:00N 40°24' E 002°51'1919.0
2017-Apr-24 15:59N 40°07' E 002°38'918.6
2017-Apr-24 15:30N 39°59' E 002°32'918.7
2017-Apr-24 15:00N 39°51' E 002°26'1218.4
2017-Apr-24 14:22N 39°41' E 002°19'1415.8
2017-Apr-24 13:30N 39°28' E 002°22'918.3
2017-Apr-24 13:00N 39°23' E 002°32'816.9
2017-Apr-24 12:30N 39°30' E 002°38'3 6.5
2017-Apr-24 12:00N 39°33' E 002°38'0 0.0
2017-Apr-24 11:30N 39°33' E 002°38'0 0.0
2017-Apr-24 11:00N 39°33' E 002°38'0 0.0
2017-Apr-24 10:30N 39°33' E 002°38'0 0.0
2017-Apr-24 09:59N 39°33' E 002°38'0 0.0
2017-Apr-24 09:30N 39°33' E 002°38'0 0.0
2017-Apr-24 09:00N 39°33' E 002°38'0 0.0
2017-Apr-24 08:29N 39°33' E 002°38'0 0.0
2017-Apr-24 07:58N 39°33' E 002°38'0 0.0
2017-Apr-24 07:28N 39°33' E 002°38'0 0.0
2017-Apr-24 07:00N 39°33' E 002°38'0 0.0
2017-Apr-24 06:30N 39°33' E 002°38'0 0.0
2017-Apr-24 06:00N 39°33' E 002°38'0 0.5
2017-Apr-24 05:30N 39°33' E 002°38'3 5.2
2017-Apr-24 05:00N 39°31' E 002°39'612.0
2017-Apr-24 04:31N 39°26' E 002°35'612.2
2017-Apr-24 04:00N 39°24' E 002°28'611.5
2017-Apr-24 03:30N 39°27' E 002°21'712.9
2017-Apr-24 03:00N 39°32' E 002°16'612.4
2017-Apr-24 02:30N 39°38' E 002°13'611.2
2017-Apr-24 02:00N 39°43' E 002°13'510.9
2017-Apr-24 01:30N 39°49' E 002°13'611.1
2017-Apr-24 01:01N 39°54' E 002°12'611.4
2017-Apr-24 00:30N 39°60' E 002°12'611.3
2017-Apr-24 00:00N 40°06' E 002°12'611.2
2017-Apr-23 23:30N 40°11' E 002°12'611.3
2017-Apr-23 23:01N 40°17' E 002°12'611.5
2017-Apr-23 22:30N 40°23' E 002°12'611.4
2017-Apr-23 22:00N 40°28' E 002°12'611.3
2017-Apr-23 21:30N 40°34' E 002°12'611.5
2017-Apr-23 21:01N 40°40' E 002°12'611.6
2017-Apr-23 20:30N 40°46' E 002°11'611.6
2017-Apr-23 20:00N 40°51' E 002°11'611.9
2017-Apr-23 19:30N 40°57' E 002°11'612.1
2017-Apr-23 19:00N 41°03' E 002°11'612.0
2017-Apr-23 18:30N 41°09' E 002°11'611.8
2017-Apr-23 18:00N 41°15' E 002°10'5 9.9
2017-Apr-23 17:30N 41°20' E 002°10'1 2.7
2017-Apr-23 16:58N 41°22' E 002°11'0 0.0
2017-Apr-23 16:16N 41°22' E 002°11'0 0.0
2017-Apr-23 15:58N 41°22' E 002°11'0 0.0
2017-Apr-23 15:28N 41°22' E 002°11'0 0.0
2017-Apr-23 13:58N 41°22' E 002°11'0 0.0
2017-Apr-23 13:28N 41°22' E 002°11'0 0.0
2017-Apr-23 12:58N 41°22' E 002°11'0 0.0
2017-Apr-23 12:28N 41°22' E 002°11'0 0.0
2017-Apr-23 11:37N 41°22' E 002°11'0 0.2
2017-Apr-23 11:30N 41°22' E 002°11'1 1.9
2017-Apr-23 10:59N 41°21' E 002°10'3 5.8
2017-Apr-23 10:27N 41°18' E 002°11'511.3
2017-Apr-23 10:00N 41°15' E 002°17'815.7
2017-Apr-23 09:30N 41°18' E 002°26'917.5
2017-Apr-23 09:00N 41°22' E 002°37'917.6
2017-Apr-23 08:30N 41°26' E 002°47'917.8
2017-Apr-23 08:00N 41°30' E 002°58'918.0
2017-Apr-23 07:30N 41°35' E 003°08'918.2
2017-Apr-23 07:00N 41°39' E 003°19'918.4
2017-Apr-23 06:30N 41°43' E 003°30'1019.0
2017-Apr-23 06:00N 41°48' E 003°41'918.5
2017-Apr-23 05:30N 41°52' E 003°52'918.3
2017-Apr-23 05:01N 41°56' E 004°03'918.4
2017-Apr-23 04:31N 42°01' E 004°14'918.3
2017-Apr-23 04:00N 42°05' E 004°25'7118.2
2017-Apr-23 00:06N 42°39' E 005°49'7117.7
2017-Apr-22 20:03N 43°17' E 007°12'117.1
2017-Apr-22 20:00N 43°17' E 007°13'817.0
2017-Apr-22 19:30N 43°23' E 007°22'917.0
2017-Apr-22 18:58N 43°28' E 007°32'916.9
2017-Apr-22 18:26N 43°34' E 007°42'1017.4
2017-Apr-22 17:53N 43°39' E 007°53'1617.5
2017-Apr-22 16:57N 43°49' E 008°11'817.6
2017-Apr-22 16:30N 43°54' E 008°19'918.3
2017-Apr-22 16:00N 44°02' E 008°25'918.7
2017-Apr-22 15:30N 44°10' E 008°31'815.2
2017-Apr-22 15:00N 44°18' E 008°32'2 3.8
2017-Apr-22 14:30N 44°19' E 008°30'0 0.0
2017-Apr-22 13:26N 44°19' E 008°30'0 0.0
2017-Apr-22 12:59N 44°19' E 008°30'0 0.0
2017-Apr-22 12:30N 44°19' E 008°30'0 0.0
2017-Apr-22 12:00N 44°19' E 008°30'0 0.0
2017-Apr-22 11:30N 44°19' E 008°30'0 0.0
2017-Apr-22 11:00N 44°19' E 008°30'0 0.0
2017-Apr-22 10:30N 44°19' E 008°30'0 0.0
2017-Apr-22 10:00N 44°19' E 008°30'0 0.0
2017-Apr-22 09:30N 44°19' E 008°30'0 0.0
2017-Apr-22 09:00N 44°19' E 008°30'0 0.0
2017-Apr-22 08:30N 44°19' E 008°30'0 0.0
2017-Apr-22 08:00N 44°19' E 008°30'0 0.0
2017-Apr-22 07:30N 44°19' E 008°30'0 0.0
2017-Apr-22 07:00N 44°19' E 008°30'0 0.0
2017-Apr-22 06:30N 44°19' E 008°30'1 1.7
2017-Apr-22 06:00N 44°19' E 008°31'4 7.6
2017-Apr-22 05:30N 44°16' E 008°33'816.8
2017-Apr-22 05:01N 44°08' E 008°30'918.3
2017-Apr-22 04:31N 43°60' E 008°24'714.0
2017-Apr-22 04:01N 43°54' E 008°19'1312.5
2017-Apr-22 02:57N 43°46' E 008°04'612.7
2017-Apr-22 02:28N 43°42' E 007°58'812.6
2017-Apr-22 01:52N 43°37' E 007°49'412.6
2017-Apr-22 01:31N 43°35' E 007°44'612.5
2017-Apr-22 01:00N 43°31' E 007°37'712.7
2017-Apr-22 00:28N 43°27' E 007°30'612.4
2017-Apr-22 00:00N 43°23' E 007°23'612.3
2017-Apr-21 23:31N 43°20' E 007°17'712.3
2017-Apr-21 22:57N 43°15' E 007°09'612.5
2017-Apr-21 22:30N 43°12' E 007°03'712.7
2017-Apr-21 21:57N 43°08' E 006°55'1712.1
2017-Apr-21 20:32N 42°58' E 006°36'2312.6
2017-Apr-21 18:43N 42°54' E 006°06'619.1
2017-Apr-21 18:25N 42°55' E 005°58'2518.6
2017-Apr-21 17:04N 43°04' E 005°26'1018.8
2017-Apr-21 16:34N 43°08' E 005°14'118.3
2017-Apr-21 16:30N 43°09' E 005°13'816.0
2017-Apr-21 16:00N 43°16' E 005°09'815.1
2017-Apr-21 15:30N 43°21' E 005°17'2 1.1
2017-Apr-21 13:54N 43°21' E 005°20'0 0.0
2017-Apr-21 13:24N 43°21' E 005°20'0 0.0
2017-Apr-21 12:09N 43°21' E 005°20'0 0.0
2017-Apr-21 11:39N 43°21' E 005°20'0 0.0
2017-Apr-21 11:27N 43°21' E 005°20'0 0.0
2017-Apr-21 10:57N 43°21' E 005°20'0 0.0
2017-Apr-21 10:27N 43°21' E 005°20'0 0.0
2017-Apr-21 09:57N 43°21' E 005°20'0 0.0
2017-Apr-21 08:27N 43°21' E 005°20'0 0.0
2017-Apr-21 07:45N 43°21' E 005°20'0 0.0
2017-Apr-21 07:30N 43°21' E 005°20'0 0.0
2017-Apr-21 07:00N 43°21' E 005°20'0 0.1
2017-Apr-21 06:28N 43°21' E 005°20'2 3.3
2017-Apr-21 06:00N 43°21' E 005°18'5 9.1
2017-Apr-21 05:30N 43°18' E 005°13'611.1
2017-Apr-21 05:00N 43°13' E 005°10'612.1
2017-Apr-21 04:29N 43°08' E 005°05'2712.1
2017-Apr-21 02:14N 42°48' E 004°39'13815.4
2017-Apr-20 17:13N 41°18' E 002°17'513.4
2017-Apr-20 16:51N 41°16' E 002°11'5 2.1
2017-Apr-20 14:34N 41°21' E 002°10'0 0.0
2017-Apr-20 14:16N 41°21' E 002°10'  

Dump ship's entire track history